createdAt,value
2018-05-24T00:00:58.927Z,0.00
2018-05-24T00:01:59.317Z,0.00
2018-05-24T00:02:58.878Z,0.00
2018-05-24T00:03:58.022Z,0.00
2018-05-24T00:04:58.043Z,0.00
2018-05-24T00:05:58.030Z,0.00
2018-05-24T00:06:58.031Z,0.00
2018-05-24T00:07:58.064Z,0.00
2018-05-24T00:08:58.180Z,0.00
2018-05-24T00:09:58.823Z,0.00
2018-05-24T00:10:58.506Z,0.00
2018-05-24T00:11:58.836Z,0.00
2018-05-24T00:12:59.050Z,0.00
2018-05-24T00:13:58.886Z,0.00
2018-05-24T00:14:58.049Z,0.00
2018-05-24T00:15:58.049Z,0.00
2018-05-24T00:16:58.050Z,0.00
2018-05-24T00:17:58.055Z,0.00
2018-05-24T00:18:58.118Z,0.00
2018-05-24T00:19:58.058Z,0.00
2018-05-24T00:20:58.058Z,0.00
2018-05-24T00:21:58.061Z,0.00
2018-05-24T00:22:58.064Z,0.00
2018-05-24T00:23:58.065Z,0.00
2018-05-24T00:24:58.072Z,0.00
2018-05-24T00:25:58.070Z,0.00
2018-05-24T00:26:58.073Z,0.00
2018-05-24T00:27:58.073Z,0.00
2018-05-24T00:28:58.077Z,0.00
2018-05-24T00:29:58.081Z,0.00
2018-05-24T00:30:58.082Z,0.00
2018-05-24T00:31:58.085Z,0.00
2018-05-24T00:32:58.084Z,0.00
2018-05-24T00:33:58.088Z,0.00
2018-05-24T00:34:58.090Z,0.00
2018-05-24T00:35:58.091Z,0.00
2018-05-24T00:36:58.094Z,0.00
2018-05-24T00:37:58.095Z,0.00
2018-05-24T00:38:58.099Z,0.00
2018-05-24T00:39:58.105Z,0.00
2018-05-24T00:40:58.104Z,0.00
2018-05-24T00:41:58.108Z,0.00
2018-05-24T00:42:58.156Z,0.00
2018-05-24T00:43:58.108Z,0.00
2018-05-24T00:44:58.111Z,0.00
2018-05-24T00:45:58.113Z,0.00
2018-05-24T00:46:58.115Z,0.00
2018-05-24T00:47:58.117Z,0.00
2018-05-24T00:48:58.123Z,0.00
2018-05-24T00:49:58.187Z,0.00
2018-05-24T00:50:58.124Z,0.00
2018-05-24T00:51:58.128Z,0.00
2018-05-24T00:52:58.129Z,0.00
2018-05-24T00:53:58.132Z,0.00
2018-05-24T00:54:58.139Z,0.00
2018-05-24T00:55:58.166Z,0.00
2018-05-24T00:56:58.137Z,0.00
2018-05-24T00:57:58.155Z,0.00
2018-05-24T00:58:58.144Z,0.00
2018-05-24T00:59:58.147Z,0.00
2018-05-24T01:00:58.154Z,0.00
2018-05-24T01:01:58.150Z,0.00
2018-05-24T01:02:58.152Z,0.00
2018-05-24T01:03:58.151Z,0.00
2018-05-24T01:04:58.155Z,0.00
2018-05-24T01:05:58.158Z,0.00
2018-05-24T01:06:58.161Z,0.00
2018-05-24T01:07:58.176Z,0.00
2018-05-24T01:08:58.165Z,0.00
2018-05-24T01:09:58.170Z,0.00
2018-05-24T01:10:58.173Z,0.00
2018-05-24T01:11:58.172Z,0.00
2018-05-24T01:12:58.174Z,0.00
2018-05-24T01:13:58.176Z,0.00
2018-05-24T01:14:58.182Z,0.00
2018-05-24T01:15:58.182Z,0.00
2018-05-24T01:16:58.185Z,0.00
2018-05-24T01:17:58.184Z,0.00
2018-05-24T01:18:58.187Z,0.00
2018-05-24T01:19:58.190Z,0.00
2018-05-24T01:20:58.193Z,0.00
2018-05-24T01:21:58.201Z,0.00
2018-05-24T01:22:58.198Z,0.00
2018-05-24T01:23:58.198Z,0.00
2018-05-24T01:24:58.202Z,0.00
2018-05-24T01:25:58.204Z,0.00
2018-05-24T01:26:58.211Z,0.00
2018-05-24T01:27:58.208Z,0.00
2018-05-24T01:28:58.211Z,0.00
2018-05-24T01:29:58.214Z,0.00
2018-05-24T01:30:58.215Z,0.00
2018-05-24T01:31:58.216Z,0.00
2018-05-24T01:32:58.221Z,0.00
2018-05-24T01:33:58.219Z,0.00
2018-05-24T01:34:58.224Z,0.00
2018-05-24T01:35:58.226Z,0.00
2018-05-24T01:36:58.225Z,0.00
2018-05-24T01:37:58.230Z,0.00
2018-05-24T01:38:58.231Z,0.00
2018-05-24T01:39:58.235Z,0.00
2018-05-24T01:40:58.249Z,0.00
2018-05-24T01:41:58.239Z,0.00
2018-05-24T01:42:58.258Z,0.00
2018-05-24T01:43:58.242Z,0.00
2018-05-24T01:44:58.243Z,0.00
2018-05-24T01:45:58.245Z,0.00
2018-05-24T01:46:58.249Z,0.00
2018-05-24T01:47:58.252Z,0.00
2018-05-24T01:48:58.253Z,0.00
2018-05-24T01:49:58.255Z,0.00
2018-05-24T01:50:58.255Z,0.00
2018-05-24T01:51:58.258Z,0.00
2018-05-24T01:52:58.262Z,0.00
2018-05-24T01:53:58.261Z,0.00
2018-05-24T01:54:58.263Z,0.00
2018-05-24T01:55:58.269Z,0.00
2018-05-24T01:56:58.266Z,0.00
2018-05-24T01:57:58.271Z,0.00
2018-05-24T01:58:58.271Z,0.00
2018-05-24T01:59:58.272Z,0.00
2018-05-24T02:00:58.275Z,0.00
2018-05-24T02:01:58.280Z,0.00
2018-05-24T02:02:58.327Z,0.00
2018-05-24T02:03:58.282Z,0.00
2018-05-24T02:04:58.637Z,0.00
2018-05-24T02:05:58.291Z,0.00
2018-05-24T02:06:59.457Z,0.00
2018-05-24T02:07:58.496Z,0.00
2018-05-24T02:08:58.385Z,0.00
2018-05-24T02:10:58.339Z,0.00
2018-05-24T02:12:19.521Z,0.00
2018-05-24T02:12:58.327Z,0.00
2018-05-24T02:13:58.339Z,0.00
2018-05-24T02:14:58.323Z,0.00
2018-05-24T02:16:19.330Z,0.00
2018-05-24T02:16:58.347Z,0.00
2018-05-24T02:17:58.328Z,0.00
2018-05-24T02:18:58.329Z,0.00
2018-05-24T02:19:58.338Z,0.00
2018-05-24T02:20:58.331Z,0.00
2018-05-24T02:22:19.348Z,0.00
2018-05-24T02:22:58.343Z,0.00
2018-05-24T02:23:58.341Z,0.00
2018-05-24T02:24:58.340Z,0.00
2018-05-24T02:25:58.344Z,0.00
2018-05-24T02:26:58.346Z,0.00
2018-05-24T02:28:19.355Z,0.00
2018-05-24T02:28:58.407Z,0.00
2018-05-24T02:29:58.349Z,0.00
2018-05-24T02:30:58.367Z,0.00
2018-05-24T02:31:58.355Z,0.00
2018-05-24T02:32:58.355Z,0.00
2018-05-24T02:34:19.369Z,0.00
2018-05-24T02:34:58.362Z,0.00
2018-05-24T02:35:58.534Z,0.00
2018-05-24T02:36:58.374Z,0.00
2018-05-24T02:37:58.374Z,0.00
2018-05-24T02:38:58.374Z,0.00
2018-05-24T02:40:19.382Z,0.00
2018-05-24T02:40:58.375Z,0.00
2018-05-24T02:41:58.411Z,0.00
2018-05-24T02:42:58.386Z,0.00
2018-05-24T02:43:58.379Z,0.00
2018-05-24T02:44:58.397Z,0.00
2018-05-24T02:46:19.395Z,0.00
2018-05-24T02:46:58.385Z,0.00
2018-05-24T02:47:58.384Z,0.00
2018-05-24T02:48:58.389Z,0.00
2018-05-24T02:49:58.389Z,0.00
2018-05-24T02:50:58.393Z,0.00
2018-05-24T02:52:19.402Z,0.00
2018-05-24T02:52:58.395Z,0.00
2018-05-24T02:53:58.401Z,0.00
2018-05-24T02:54:58.400Z,0.00
2018-05-24T02:55:58.403Z,0.00
2018-05-24T02:56:58.403Z,0.00
2018-05-24T02:58:19.426Z,0.00
2018-05-24T02:58:58.408Z,0.00
2018-05-24T02:59:58.407Z,0.00
2018-05-24T03:00:58.423Z,0.00
2018-05-24T03:01:58.415Z,0.00
2018-05-24T03:02:58.419Z,0.00
2018-05-24T03:04:19.440Z,0.00
2018-05-24T03:04:58.425Z,0.00
2018-05-24T03:05:58.500Z,0.00
2018-05-24T03:06:58.431Z,0.00
2018-05-24T03:07:58.429Z,0.00
2018-05-24T03:08:58.426Z,0.00
2018-05-24T03:10:19.486Z,0.00
2018-05-24T03:10:58.431Z,0.00
2018-05-24T03:11:58.432Z,0.00
2018-05-24T03:12:58.437Z,0.00
2018-05-24T03:13:58.438Z,0.00
2018-05-24T03:14:58.438Z,0.00
2018-05-24T03:16:19.572Z,0.00
2018-05-24T03:16:58.441Z,0.00
2018-05-24T03:17:58.449Z,0.00
2018-05-24T03:18:58.464Z,0.00
2018-05-24T03:19:58.445Z,0.00
2018-05-24T03:20:58.450Z,0.00
2018-05-24T03:22:19.461Z,0.00
2018-05-24T03:22:58.448Z,0.00
2018-05-24T03:23:58.455Z,0.00
2018-05-24T03:24:58.453Z,0.00
2018-05-24T03:25:58.454Z,0.00
2018-05-24T03:26:58.454Z,0.00
2018-05-24T03:28:19.463Z,0.00
2018-05-24T03:28:58.457Z,0.00
2018-05-24T03:29:58.461Z,0.00
2018-05-24T03:30:58.463Z,0.00
2018-05-24T03:31:58.469Z,0.00
2018-05-24T03:32:58.464Z,0.00
2018-05-24T03:34:19.475Z,0.00
2018-05-24T03:34:58.466Z,0.00
2018-05-24T03:35:58.472Z,0.00
2018-05-24T03:36:58.471Z,0.00
2018-05-24T03:37:58.469Z,0.00
2018-05-24T03:38:58.474Z,0.00
2018-05-24T03:40:19.481Z,0.00
2018-05-24T03:40:58.489Z,0.00
2018-05-24T03:41:58.478Z,0.00
2018-05-24T03:42:58.476Z,0.00
2018-05-24T03:43:58.485Z,0.00
2018-05-24T03:44:58.479Z,0.00
2018-05-24T03:46:19.495Z,0.00
2018-05-24T03:46:58.482Z,0.00
2018-05-24T03:47:58.485Z,5.63
2018-05-24T03:48:58.485Z,5.63
2018-05-24T03:49:58.493Z,5.63
2018-05-24T03:50:58.494Z,5.63
2018-05-24T03:52:19.502Z,5.63
2018-05-24T03:52:58.490Z,5.63
2018-05-24T03:53:58.491Z,5.63
2018-05-24T03:54:58.492Z,5.63
2018-05-24T03:55:58.491Z,5.63
2018-05-24T03:56:58.492Z,5.63
2018-05-24T03:58:19.505Z,5.63
2018-05-24T03:58:58.494Z,5.63
2018-05-24T03:59:58.497Z,5.63
2018-05-24T04:00:58.500Z,5.63
2018-05-24T04:01:58.500Z,11.25
2018-05-24T04:02:58.511Z,11.25
2018-05-24T04:04:19.513Z,11.25
2018-05-24T04:04:58.505Z,11.25
2018-05-24T04:05:58.505Z,11.25
2018-05-24T04:06:58.505Z,11.25
2018-05-24T04:07:58.507Z,11.25
2018-05-24T04:08:58.509Z,11.25
2018-05-24T04:10:19.519Z,11.25
2018-05-24T04:10:58.516Z,11.25
2018-05-24T04:11:58.548Z,11.25
2018-05-24T04:12:58.512Z,11.25
2018-05-24T04:13:58.519Z,11.25
2018-05-24T04:14:58.527Z,11.25
2018-05-24T04:16:19.557Z,11.25
2018-05-24T04:16:58.522Z,11.25
2018-05-24T04:17:58.549Z,16.88
2018-05-24T04:18:58.525Z,16.88
2018-05-24T04:19:58.528Z,16.88
2018-05-24T04:20:58.523Z,11.25
2018-05-24T04:22:19.535Z,11.25
2018-05-24T04:22:58.526Z,11.25
2018-05-24T04:23:58.525Z,11.25
2018-05-24T04:24:58.527Z,11.25
2018-05-24T04:25:58.532Z,11.25
2018-05-24T04:26:58.554Z,11.25
2018-05-24T04:28:19.540Z,11.25
2018-05-24T04:28:58.540Z,11.25
2018-05-24T04:29:58.534Z,11.25
2018-05-24T04:30:58.553Z,11.25
2018-05-24T04:31:58.539Z,11.25
2018-05-24T04:32:58.574Z,11.25
2018-05-24T04:34:19.548Z,11.25
2018-05-24T04:34:58.545Z,11.25
2018-05-24T04:35:58.561Z,11.25
2018-05-24T04:36:58.553Z,11.25
2018-05-24T04:37:58.547Z,11.25
2018-05-24T04:38:58.548Z,11.25
2018-05-24T04:40:19.562Z,11.25
2018-05-24T04:40:58.569Z,11.25
2018-05-24T04:41:58.568Z,11.25
2018-05-24T04:42:58.553Z,11.25
2018-05-24T04:43:58.573Z,11.25
2018-05-24T04:44:58.556Z,16.88
2018-05-24T04:46:19.678Z,16.88
2018-05-24T04:46:58.558Z,16.88
2018-05-24T04:47:58.785Z,16.88
2018-05-24T04:48:58.559Z,16.88
2018-05-24T04:49:58.564Z,16.88
2018-05-24T04:50:58.566Z,16.88
2018-05-24T04:52:19.573Z,16.88
2018-05-24T04:52:58.569Z,16.88
2018-05-24T04:53:58.576Z,16.88
2018-05-24T04:54:58.571Z,16.88
2018-05-24T04:55:58.593Z,16.88
2018-05-24T04:56:58.876Z,16.88
2018-05-24T04:58:19.583Z,16.88
2018-05-24T04:58:58.576Z,16.88
2018-05-24T04:59:58.580Z,16.88
2018-05-24T05:00:58.580Z,16.88
2018-05-24T05:01:58.579Z,16.88
2018-05-24T05:02:58.584Z,16.88
2018-05-24T05:04:20.476Z,16.88
2018-05-24T05:04:58.595Z,16.88
2018-05-24T05:06:00.246Z,16.88
2018-05-24T05:06:58.789Z,16.88
2018-05-24T05:07:59.680Z,22.50
2018-05-24T05:08:58.592Z,22.50
2018-05-24T05:10:19.603Z,22.50
2018-05-24T05:10:58.593Z,22.50
2018-05-24T05:11:58.597Z,22.50
2018-05-24T05:12:58.596Z,22.50
2018-05-24T05:13:58.632Z,22.50
2018-05-24T05:14:58.604Z,22.50
2018-05-24T05:16:19.659Z,22.50
2018-05-24T05:16:58.607Z,16.88
2018-05-24T05:17:58.606Z,22.50
2018-05-24T05:18:58.609Z,16.88
2018-05-24T05:19:58.610Z,16.88
2018-05-24T05:20:58.613Z,16.88
2018-05-24T05:22:19.619Z,16.88
2018-05-24T05:22:58.617Z,16.88
2018-05-24T05:23:58.615Z,16.88
2018-05-24T05:24:58.619Z,16.88
2018-05-24T05:25:58.616Z,22.50
2018-05-24T05:26:58.617Z,22.50
2018-05-24T05:28:19.636Z,22.50
2018-05-24T05:28:58.631Z,22.50
2018-05-24T05:29:58.624Z,22.50
2018-05-24T05:30:58.625Z,22.50
2018-05-24T05:31:58.624Z,22.50
2018-05-24T05:32:58.634Z,22.50
2018-05-24T05:34:19.643Z,22.50
2018-05-24T05:34:58.629Z,22.50
2018-05-24T05:35:58.653Z,22.50
2018-05-24T05:36:58.637Z,22.50
2018-05-24T05:37:58.658Z,22.50
2018-05-24T05:38:58.639Z,22.50
2018-05-24T05:40:19.648Z,22.50
2018-05-24T05:40:58.641Z,22.50
2018-05-24T05:41:58.644Z,28.13
2018-05-24T05:42:58.645Z,28.13
2018-05-24T05:43:58.646Z,28.13
2018-05-24T05:44:58.643Z,28.13
2018-05-24T05:46:19.761Z,28.13
2018-05-24T05:46:58.648Z,28.13
2018-05-24T05:47:58.648Z,28.13
2018-05-24T05:48:58.652Z,28.13
2018-05-24T05:49:58.657Z,28.13
2018-05-24T05:51:00.821Z,22.50
2018-05-24T05:52:19.736Z,22.50
2018-05-24T05:52:58.657Z,22.50
2018-05-24T05:53:58.657Z,22.50
2018-05-24T05:54:58.661Z,22.50
2018-05-24T05:55:58.658Z,22.50
2018-05-24T05:56:58.658Z,22.50
2018-05-24T05:58:19.668Z,22.50
2018-05-24T05:58:58.675Z,28.13
2018-05-24T05:59:58.663Z,28.13
2018-05-24T06:00:58.667Z,28.13
2018-05-24T06:01:58.693Z,33.75
2018-05-24T06:02:58.673Z,33.75
2018-05-24T06:04:19.683Z,39.38
2018-05-24T06:04:58.685Z,39.38
2018-05-24T06:05:58.675Z,45.00
2018-05-24T06:06:58.702Z,50.63
2018-05-24T06:07:58.677Z,56.25
2018-05-24T06:08:58.676Z,61.88
2018-05-24T06:10:19.685Z,67.50
2018-05-24T06:10:58.676Z,67.50
2018-05-24T06:11:58.677Z,73.13
2018-05-24T06:12:58.676Z,78.75
2018-05-24T06:13:58.823Z,78.75
2018-05-24T06:14:58.680Z,84.38
2018-05-24T06:16:19.772Z,84.38
2018-05-24T06:16:58.686Z,90.00
2018-05-24T06:17:58.689Z,95.63
2018-05-24T06:18:58.685Z,95.63
2018-05-24T06:19:58.688Z,106.88
2018-05-24T06:20:58.687Z,123.75
2018-05-24T06:22:19.699Z,118.13
2018-05-24T06:22:58.701Z,129.38
2018-05-24T06:23:58.695Z,129.38
2018-05-24T06:24:58.696Z,146.25
2018-05-24T06:25:58.696Z,140.63
2018-05-24T06:26:58.695Z,180.00
2018-05-24T06:28:19.722Z,163.13
2018-05-24T06:28:58.717Z,157.50
2018-05-24T06:29:58.698Z,146.25
2018-05-24T06:30:58.703Z,140.63
2018-05-24T06:31:58.702Z,146.25
2018-05-24T06:32:58.705Z,135.00
2018-05-24T06:34:19.719Z,135.00
2018-05-24T06:34:58.707Z,135.00
2018-05-24T06:35:58.707Z,123.75
2018-05-24T06:36:58.709Z,123.75
2018-05-24T06:37:58.719Z,129.38
2018-05-24T06:38:58.868Z,129.38
2018-05-24T06:40:19.726Z,129.38
2018-05-24T06:40:58.723Z,163.13
2018-05-24T06:41:58.718Z,118.13
2018-05-24T06:42:58.720Z,118.13
2018-05-24T06:43:59.183Z,118.13
2018-05-24T06:44:58.753Z,129.38
2018-05-24T06:46:19.826Z,163.13
2018-05-24T06:46:58.726Z,191.25
2018-05-24T06:47:58.732Z,174.38
2018-05-24T06:48:58.726Z,163.13
2018-05-24T06:49:58.732Z,140.63
2018-05-24T06:50:58.746Z,151.88
2018-05-24T06:52:19.759Z,151.88
2018-05-24T06:52:58.742Z,146.25
2018-05-24T06:53:58.754Z,129.38
2018-05-24T06:54:58.777Z,118.13
2018-05-24T06:55:58.742Z,106.88
2018-05-24T06:56:58.743Z,101.25
2018-05-24T06:58:19.754Z,90.00
2018-05-24T06:58:58.746Z,84.38
2018-05-24T06:59:58.884Z,78.75
2018-05-24T07:00:58.811Z,78.75
2018-05-24T07:01:58.803Z,78.75
2018-05-24T07:02:59.082Z,84.38
2018-05-24T07:04:19.774Z,84.38
2018-05-24T07:04:58.766Z,84.38
2018-05-24T07:05:58.794Z,84.38
2018-05-24T07:06:58.781Z,78.75
2018-05-24T07:07:58.795Z,78.75
2018-05-24T07:08:58.775Z,73.13
2018-05-24T07:10:19.777Z,73.13
2018-05-24T07:10:59.207Z,73.13
2018-05-24T07:11:58.773Z,73.13
2018-05-24T07:12:58.778Z,78.75
2018-05-24T07:13:58.777Z,84.38
2018-05-24T07:14:58.784Z,84.38
2018-05-24T07:16:19.860Z,84.38
2018-05-24T07:16:58.785Z,84.38
2018-05-24T07:17:58.790Z,84.38
2018-05-24T07:18:58.791Z,84.38
2018-05-24T07:19:58.793Z,78.75
2018-05-24T07:20:58.801Z,78.75
2018-05-24T07:22:20.485Z,73.13
2018-05-24T07:22:58.807Z,73.13
2018-05-24T07:23:58.800Z,73.13
2018-05-24T07:24:58.802Z,73.13
2018-05-24T07:25:58.808Z,67.50
2018-05-24T07:26:58.809Z,67.50
2018-05-24T07:28:19.816Z,67.50
2018-05-24T07:28:58.824Z,67.50
2018-05-24T07:29:58.822Z,67.50
2018-05-24T07:30:58.815Z,67.50
2018-05-24T07:31:58.819Z,67.50
2018-05-24T07:32:58.819Z,73.13
2018-05-24T07:34:19.946Z,73.13
2018-05-24T07:34:58.831Z,73.13
2018-05-24T07:35:59.345Z,73.13
2018-05-24T07:36:59.547Z,78.75
2018-05-24T07:37:58.957Z,78.75
2018-05-24T07:39:00.024Z,78.75
2018-05-24T07:40:20.183Z,84.38
2018-05-24T07:40:58.844Z,95.63
2018-05-24T07:41:58.935Z,106.88
2018-05-24T07:42:58.844Z,123.75
2018-05-24T07:43:58.842Z,135.00
2018-05-24T07:44:58.887Z,140.63
2018-05-24T07:46:19.891Z,140.63
2018-05-24T07:46:58.853Z,140.63
2018-05-24T07:47:58.850Z,140.63
2018-05-24T07:48:58.848Z,140.63
2018-05-24T07:49:58.866Z,140.63
2018-05-24T07:50:58.854Z,140.63
2018-05-24T07:52:19.862Z,135.00
2018-05-24T07:52:58.859Z,129.38
2018-05-24T07:53:58.865Z,123.75
2018-05-24T07:54:58.860Z,123.75
2018-05-24T07:55:58.864Z,118.13
2018-05-24T07:56:58.866Z,112.50
2018-05-24T07:58:19.913Z,106.88
2018-05-24T07:58:58.872Z,101.25
2018-05-24T07:59:58.871Z,90.00
2018-05-24T08:00:58.869Z,84.38
2018-05-24T08:01:59.210Z,78.75
2018-05-24T08:02:58.876Z,73.13
2018-05-24T08:04:19.890Z,67.50
2018-05-24T08:04:58.879Z,67.50
2018-05-24T08:05:58.889Z,61.88
2018-05-24T08:06:58.883Z,61.88
2018-05-24T08:07:58.886Z,61.88
2018-05-24T08:08:58.887Z,56.25
2018-05-24T08:10:19.900Z,56.25
2018-05-24T08:10:59.148Z,50.63
2018-05-24T08:11:58.895Z,50.63
2018-05-24T08:12:59.133Z,50.63
2018-05-24T08:13:58.897Z,56.25
2018-05-24T08:14:58.899Z,56.25
2018-05-24T08:16:19.963Z,61.88
2018-05-24T08:16:58.909Z,61.88
2018-05-24T08:17:58.913Z,61.88
2018-05-24T08:18:58.913Z,67.50
2018-05-24T08:19:58.909Z,67.50
2018-05-24T08:20:58.908Z,67.50
2018-05-24T08:22:19.924Z,67.50
2018-05-24T08:22:58.920Z,67.50
2018-05-24T08:23:58.912Z,67.50
2018-05-24T08:24:59.249Z,67.50
2018-05-24T08:25:58.917Z,67.50
2018-05-24T08:26:58.924Z,67.50
2018-05-24T08:28:19.933Z,73.13
2018-05-24T08:28:58.925Z,73.13
2018-05-24T08:29:58.926Z,73.13
2018-05-24T08:30:58.933Z,78.75
2018-05-24T08:31:58.939Z,78.75
2018-05-24T08:32:58.931Z,78.75
2018-05-24T08:34:19.943Z,78.75
2018-05-24T08:34:58.948Z,78.75
2018-05-24T08:35:59.007Z,78.75
2018-05-24T08:36:58.944Z,78.75
2018-05-24T08:37:58.946Z,78.75
2018-05-24T08:38:58.971Z,84.38
2018-05-24T08:40:20.011Z,90.00
2018-05-24T08:40:59.114Z,95.63
2018-05-24T08:41:58.960Z,112.50
2018-05-24T08:42:58.961Z,123.75
2018-05-24T08:43:58.953Z,135.00
2018-05-24T08:44:58.997Z,135.00
2018-05-24T08:46:20.069Z,135.00
2018-05-24T08:46:58.986Z,123.75
2018-05-24T08:47:58.964Z,106.88
2018-05-24T08:48:58.966Z,95.63
2018-05-24T08:49:58.967Z,90.00
2018-05-24T08:50:58.970Z,90.00
2018-05-24T08:52:19.982Z,84.38
2018-05-24T08:52:58.977Z,78.75
2018-05-24T08:53:59.040Z,78.75
2018-05-24T08:54:58.983Z,78.75
2018-05-24T08:55:58.996Z,73.13
2018-05-24T08:56:58.990Z,78.75
2018-05-24T08:58:19.998Z,78.75
2018-05-24T08:58:59.039Z,78.75
2018-05-24T08:59:59.053Z,78.75
2018-05-24T09:00:58.996Z,78.75
2018-05-24T09:01:58.995Z,73.13
2018-05-24T09:02:58.996Z,73.13
2018-05-24T09:04:20.015Z,73.13
2018-05-24T09:04:58.999Z,73.13
2018-05-24T09:05:59.012Z,73.13
2018-05-24T09:06:59.006Z,78.75
2018-05-24T09:07:59.344Z,78.75
2018-05-24T09:08:59.133Z,84.38
2018-05-24T09:10:20.022Z,78.75
2018-05-24T09:10:59.992Z,73.13
2018-05-24T09:11:59.016Z,67.50
2018-05-24T09:12:59.033Z,67.50
2018-05-24T09:13:59.244Z,67.50
2018-05-24T09:14:59.048Z,67.50
2018-05-24T09:16:20.072Z,73.13
2018-05-24T09:16:59.033Z,84.38
2018-05-24T09:17:59.029Z,84.38
2018-05-24T09:18:59.023Z,78.75
2018-05-24T09:19:59.031Z,95.63
2018-05-24T09:20:59.041Z,123.75
2018-05-24T09:22:20.048Z,123.75
2018-05-24T09:22:59.061Z,123.75
2018-05-24T09:23:59.062Z,129.38
2018-05-24T09:24:59.039Z,129.38
2018-05-24T09:25:59.067Z,129.38
2018-05-24T09:26:59.073Z,135.00
2018-05-24T09:28:20.144Z,135.00
2018-05-24T09:28:59.416Z,123.75
2018-05-24T09:29:59.496Z,112.50
2018-05-24T09:30:59.072Z,112.50
2018-05-24T09:31:59.054Z,112.50
2018-05-24T09:32:59.061Z,118.13
2018-05-24T09:34:20.128Z,123.75
2018-05-24T09:34:59.156Z,123.75
2018-05-24T09:35:59.099Z,123.75
2018-05-24T09:36:59.069Z,140.63
2018-05-24T09:37:59.077Z,151.88
2018-05-24T09:38:59.184Z,163.13
2018-05-24T09:40:20.132Z,185.63
2018-05-24T09:41:00.013Z,191.25
2018-05-24T09:42:01.941Z,157.50
2018-05-24T09:42:59.088Z,146.25
2018-05-24T09:43:59.130Z,140.63
2018-05-24T09:44:59.095Z,146.25
2018-05-24T09:46:20.352Z,140.63
2018-05-24T09:46:59.116Z,151.88
2018-05-24T09:47:59.404Z,180.00
2018-05-24T09:48:59.305Z,225.00
2018-05-24T09:49:59.184Z,225.00
2018-05-24T09:50:59.109Z,213.75
2018-05-24T09:52:20.141Z,174.38
2018-05-24T09:52:59.116Z,157.50
2018-05-24T09:53:59.183Z,129.38
2018-05-24T09:54:59.115Z,123.75
2018-05-24T09:55:59.166Z,106.88
2018-05-24T09:56:59.155Z,101.25
2018-05-24T09:58:20.139Z,106.88
2018-05-24T09:59:00.548Z,106.88
2018-05-24T09:59:59.360Z,118.13
2018-05-24T10:01:00.314Z,112.50
2018-05-24T10:01:59.367Z,118.13
2018-05-24T10:02:59.133Z,123.75
2018-05-24T10:04:20.159Z,129.38
2018-05-24T10:04:59.134Z,123.75
2018-05-24T10:05:59.238Z,123.75
2018-05-24T10:06:59.139Z,123.75
2018-05-24T10:07:59.141Z,129.38
2018-05-24T10:08:59.491Z,129.38
2018-05-24T10:10:20.190Z,135.00
2018-05-24T10:10:59.158Z,135.00
2018-05-24T10:11:59.682Z,118.13
2018-05-24T10:13:00.194Z,112.50
2018-05-24T10:13:59.160Z,112.50
2018-05-24T10:14:59.167Z,123.75
2018-05-24T10:16:20.327Z,129.38
2018-05-24T10:16:59.165Z,129.38
2018-05-24T10:17:59.173Z,129.38
2018-05-24T10:18:59.170Z,118.13
2018-05-24T10:19:59.175Z,106.88
2018-05-24T10:20:59.193Z,73.13
2018-05-24T10:22:20.234Z,73.13
2018-05-24T10:22:59.292Z,78.75
2018-05-24T10:24:00.512Z,84.38
2018-05-24T10:25:00.366Z,101.25
2018-05-24T10:25:59.198Z,123.75
2018-05-24T10:26:59.214Z,129.38
2018-05-24T10:28:20.220Z,129.38
2018-05-24T10:29:00.140Z,123.75
2018-05-24T10:29:59.205Z,118.13
2018-05-24T10:30:59.204Z,101.25
2018-05-24T10:31:59.204Z,84.38
2018-05-24T10:32:59.214Z,84.38
2018-05-24T10:34:20.420Z,84.38
2018-05-24T10:34:59.212Z,84.38
2018-05-24T10:35:59.263Z,84.38
2018-05-24T10:36:59.220Z,90.00
2018-05-24T10:37:59.223Z,84.38
2018-05-24T10:38:59.544Z,67.50
2018-05-24T10:40:20.238Z,67.50
2018-05-24T10:40:59.690Z,67.50
2018-05-24T10:41:59.231Z,67.50
2018-05-24T10:42:59.282Z,67.50
2018-05-24T10:43:59.240Z,61.88
2018-05-24T10:44:59.286Z,56.25
2018-05-24T10:46:20.354Z,50.63
2018-05-24T10:46:59.239Z,45.00
2018-05-24T10:47:59.253Z,45.00
2018-05-24T10:48:59.277Z,45.00
2018-05-24T10:49:59.371Z,45.00
2018-05-24T10:50:59.295Z,50.63
2018-05-24T10:52:21.759Z,45.00
2018-05-24T10:52:59.251Z,45.00
2018-05-24T10:53:59.313Z,45.00
2018-05-24T10:54:59.258Z,39.38
2018-05-24T10:55:59.306Z,39.38
2018-05-24T10:56:59.261Z,33.75
2018-05-24T10:58:20.279Z,33.75
2018-05-24T10:58:59.270Z,28.13
2018-05-24T10:59:59.390Z,22.50
2018-05-24T11:00:59.322Z,28.13
2018-05-24T11:02:00.138Z,28.13
2018-05-24T11:02:59.373Z,22.50
2018-05-24T11:04:20.372Z,22.50
2018-05-24T11:04:59.284Z,28.13
2018-05-24T11:05:59.281Z,22.50
2018-05-24T11:07:00.126Z,22.50
2018-05-24T11:07:59.283Z,22.50
2018-05-24T11:08:59.294Z,28.13
2018-05-24T11:10:20.306Z,28.13
2018-05-24T11:10:59.291Z,28.13
2018-05-24T11:11:59.288Z,28.13
2018-05-24T11:12:59.293Z,28.13
2018-05-24T11:13:59.294Z,22.50
2018-05-24T11:14:59.293Z,22.50
2018-05-24T11:16:20.338Z,16.88
2018-05-24T11:16:59.316Z,16.88
2018-05-24T11:17:59.345Z,16.88
2018-05-24T11:18:59.307Z,22.50
2018-05-24T11:19:59.305Z,22.50
2018-05-24T11:20:59.364Z,22.50
2018-05-24T11:22:20.485Z,22.50
2018-05-24T11:22:59.315Z,22.50
2018-05-24T11:23:59.846Z,28.13
2018-05-24T11:24:59.320Z,28.13
2018-05-24T11:25:59.321Z,22.50
2018-05-24T11:26:59.475Z,28.13
2018-05-24T11:28:20.339Z,28.13
2018-05-24T11:28:59.326Z,33.75
2018-05-24T11:29:59.340Z,33.75
2018-05-24T11:30:59.399Z,45.00
2018-05-24T11:31:59.391Z,50.63
2018-05-24T11:32:59.332Z,50.63
2018-05-24T11:34:20.345Z,50.63
2018-05-24T11:34:59.332Z,50.63
2018-05-24T11:35:59.569Z,50.63
2018-05-24T11:36:59.399Z,50.63
2018-05-24T11:37:59.340Z,50.63
2018-05-24T11:38:59.343Z,45.00
2018-05-24T11:40:20.354Z,39.38
2018-05-24T11:40:59.348Z,45.00
2018-05-24T11:41:59.347Z,45.00
2018-05-24T11:42:59.384Z,45.00
2018-05-24T11:43:59.355Z,50.63
2018-05-24T11:44:59.363Z,56.25
2018-05-24T11:46:20.419Z,56.25
2018-05-24T11:46:59.369Z,56.25
2018-05-24T11:48:02.140Z,56.25
2018-05-24T11:48:59.538Z,56.25
2018-05-24T11:50:01.116Z,56.25
2018-05-24T11:50:59.447Z,56.25
2018-05-24T11:52:21.598Z,61.88
2018-05-24T11:52:59.436Z,61.88
2018-05-24T11:53:59.466Z,61.88
2018-05-24T11:54:59.369Z,61.88
2018-05-24T11:55:59.408Z,56.25
2018-05-24T11:56:59.377Z,56.25
2018-05-24T11:58:20.376Z,50.63
2018-05-24T11:58:59.374Z,50.63
2018-05-24T11:59:59.379Z,50.63
2018-05-24T12:00:59.394Z,45.00
2018-05-24T12:01:59.385Z,45.00
2018-05-24T12:02:59.378Z,45.00
2018-05-24T12:04:20.388Z,45.00
2018-05-24T12:04:59.661Z,50.63
2018-05-24T12:05:59.460Z,50.63
2018-05-24T12:06:59.411Z,50.63
2018-05-24T12:07:59.385Z,56.25
2018-05-24T12:08:59.400Z,56.25
2018-05-24T12:10:20.401Z,56.25
2018-05-24T12:10:59.401Z,56.25
2018-05-24T12:11:59.403Z,56.25
2018-05-24T12:12:59.391Z,61.88
2018-05-24T12:13:59.400Z,56.25
2018-05-24T12:14:59.398Z,56.25
2018-05-24T12:16:20.462Z,56.25
2018-05-24T12:16:59.398Z,56.25
2018-05-24T12:17:59.399Z,56.25
2018-05-24T12:18:59.436Z,56.25
2018-05-24T12:19:59.402Z,56.25
2018-05-24T12:21:00.145Z,56.25
2018-05-24T12:22:23.147Z,56.25
2018-05-24T12:22:59.700Z,61.88
2018-05-24T12:23:59.416Z,61.88
2018-05-24T12:24:59.433Z,61.88
2018-05-24T12:25:59.413Z,56.25
2018-05-24T12:26:59.417Z,50.63
2018-05-24T12:28:20.422Z,50.63
2018-05-24T12:28:59.841Z,56.25
2018-05-24T12:29:59.433Z,67.50
2018-05-24T12:30:59.419Z,67.50
2018-05-24T12:31:59.534Z,67.50
2018-05-24T12:32:59.579Z,73.13
2018-05-24T12:34:20.433Z,73.13
2018-05-24T12:34:59.423Z,73.13
2018-05-24T12:35:59.847Z,78.75
2018-05-24T12:36:59.428Z,84.38
2018-05-24T12:38:00.169Z,90.00
2018-05-24T12:39:00.032Z,90.00
2018-05-24T12:40:20.441Z,95.63
2018-05-24T12:40:59.445Z,101.25
2018-05-24T12:41:59.434Z,106.88
2018-05-24T12:42:59.434Z,118.13
2018-05-24T12:43:59.440Z,129.38
2018-05-24T12:44:59.437Z,140.63
2018-05-24T12:46:20.473Z,151.88
2018-05-24T12:46:59.444Z,157.50
2018-05-24T12:47:59.450Z,157.50
2018-05-24T12:48:59.536Z,151.88
2018-05-24T12:49:59.456Z,146.25
2018-05-24T12:50:59.453Z,146.25
2018-05-24T12:52:20.565Z,140.63
2018-05-24T12:52:59.451Z,135.00
2018-05-24T12:53:59.451Z,129.38
2018-05-24T12:54:59.458Z,129.38
2018-05-24T12:55:59.456Z,118.13
2018-05-24T12:56:59.809Z,118.13